Time;durP1;ratioP1;P1;durP2;ratioP2;P2;SDS_P1;SDS_P2;PMS_P1;PMS_P2;Temp;Humidity;BMP_temperature;BMP_pressure;BME280_temperature;BME280_humidity;BME280_pressure;Samples;Min_cycle;Max_cycle;Signal;HPM_P1;HPM_P2
2022/01/16 00:04:24;;;;;;;44.80;29.88;;;;;;;4.79;61.72;102178.66;5035332;28;20045;-60
2022/01/16 00:06:51;;;;;;;51.65;32.63;;;;;;;4.80;61.41;102158.72;5035500;28;20053;-60
2022/01/16 00:09:18;;;;;;;47.03;31.38;;;;;;;4.78;61.81;102196.91;5034971;28;20042;-60
2022/01/16 00:11:45;;;;;;;49.88;31.50;;;;;;;4.74;61.65;102173.50;5035355;28;20050;-60
2022/01/16 00:14:12;;;;;;;48.50;30.67;;;;;;;4.76;61.87;102146.63;5034994;28;20494;-60
2022/01/16 00:16:39;;;;;;;45.25;30.40;;;;;;;4.76;61.90;102141.41;5035319;28;20129;-60
2022/01/16 00:19:07;;;;;;;46.83;30.27;;;;;;;4.74;62.02;102144.03;5035009;28;20496;-61
2022/01/16 00:21:38;;;;;;;44.47;28.77;;;;;;;4.68;62.05;102163.16;5034019;28;20559;-60
2022/01/16 00:24:06;;;;;;;45.88;29.50;;;;;;;4.67;62.25;102151.06;5033689;28;20041;-60
2022/01/16 00:26:33;;;;;;;46.30;29.85;;;;;;;4.69;62.16;102190.03;5035093;28;20042;-60
2022/01/16 00:29:00;;;;;;;47.83;30.77;;;;;;;4.67;62.08;102183.97;5034924;28;20049;-60
2022/01/16 00:31:27;;;;;;;43.42;29.38;;;;;;;4.65;61.96;102181.38;5034947;28;20506;-63
2022/01/16 00:33:53;;;;;;;43.03;28.80;;;;;;;4.63;61.97;102151.09;5035370;28;20049;-63
2022/01/16 00:36:21;;;;;;;45.08;28.30;;;;;;;4.62;62.08;102165.84;5034571;28;20099;-64
2022/01/16 00:38:49;;;;;;;47.05;28.52;;;;;;;4.64;62.07;102171.84;5033216;28;20104;-61
2022/01/16 00:41:18;;;;;;;43.70;28.70;;;;;;;4.63;62.01;102159.72;5034127;28;20045;-60
2022/01/16 00:43:45;;;;;;;48.22;29.63;;;;;;;4.60;62.05;102158.88;5035030;28;20045;-59
2022/01/16 00:46:13;;;;;;;46.15;29.15;;;;;;;4.60;61.98;102174.50;5034368;28;20095;-60
2022/01/16 00:48:40;;;;;;;44.00;29.23;;;;;;;4.54;61.80;102180.63;5034477;28;20076;-60
2022/01/16 00:51:07;;;;;;;44.95;28.85;;;;;;;4.52;61.86;102211.84;5033796;28;20045;-59
2022/01/16 00:53:33;;;;;;;46.97;27.63;;;;;;;4.52;61.93;102209.22;5034330;28;20080;-60
2022/01/16 00:56:00;;;;;;;46.10;27.75;;;;;;;4.52;61.86;102195.34;5033712;28;20103;-60
2022/01/16 00:58:27;;;;;;;47.75;28.83;;;;;;;4.48;61.98;102204.94;5034207;28;20054;-61
2022/01/16 01:00:53;;;;;;;46.50;29.02;;;;;;;4.48;61.87;102149.47;5034216;28;20096;-60
2022/01/16 01:03:20;;;;;;;44.80;29.88;;;;;;;4.43;62.04;102117.47;5034014;28;20511;-64
2022/01/16 01:05:47;;;;;;;41.53;28.15;;;;;;;4.43;62.03;102105.31;5034450;28;20045;-60
2022/01/16 01:08:14;;;;;;;41.70;27.00;;;;;;;4.43;61.97;102105.31;5034113;28;20095;-60
2022/01/16 01:10:43;;;;;;;43.78;28.38;;;;;;;4.42;62.00;102114.00;5033795;28;20056;-60
2022/01/16 01:13:22;;;;;;;41.70;26.75;;;;;;;4.39;62.01;102111.41;5033093;28;20050;-60
2022/01/16 01:15:58;;;;;;;41.97;26.55;;;;;;;4.36;61.88;102142.66;5034286;28;20075;-61
2022/01/16 01:18:25;;;;;;;48.25;28.45;;;;;;;4.34;61.77;102149.59;5033945;28;20053;-60
2022/01/16 01:20:52;;;;;;;44.25;27.48;;;;;;;4.32;62.04;102164.34;5033957;28;20045;-60
2022/01/16 01:23:19;;;;;;;41.80;26.60;;;;;;;4.30;61.86;102186.88;5033747;28;20053;-61
2022/01/16 01:25:45;;;;;;;39.47;26.55;;;;;;;4.25;62.10;102192.09;5033856;28;20045;-62
2022/01/16 01:28:12;;;;;;;42.90;27.58;;;;;;;4.21;61.86;102211.19;5034032;28;20453;-62
2022/01/16 01:30:41;;;;;;;41.83;26.92;;;;;;;4.21;61.87;102206.81;5032909;28;20108;-62
2022/01/16 01:33:07;;;;;;;39.53;27.02;;;;;;;4.18;61.74;102209.47;5033740;28;20133;-62
2022/01/16 01:35:38;;;;;;;44.53;28.23;;;;;;;4.17;61.61;102191.28;5033809;28;20482;-62
2022/01/16 01:38:07;;;;;;;40.85;26.58;;;;;;;4.15;61.70;102190.44;5033666;28;20125;-62
2022/01/16 01:40:35;;;;;;;42.75;26.10;;;;;;;4.12;61.66;102208.63;5033625;28;20080;-60
2022/01/16 01:51:01;;;;;;;41.42;26.98;;;;;;;4.09;61.37;102212.97;5033366;28;20093;-60
2022/01/16 01:51:31;;;;;;;45.33;28.73;;;;;;;3.95;61.60;102232.09;5033376;28;20049;-61
2022/01/16 01:53:59;;;;;;;42.50;26.67;;;;;;;3.99;61.42;102233.81;5033367;28;20045;-61
2022/01/16 01:56:27;;;;;;;41.55;27.55;;;;;;;3.97;61.30;102236.41;5033472;28;20103;-60
2022/01/16 01:58:57;;;;;;;41.08;26.45;;;;;;;3.95;61.30;102235.56;5033158;28;20049;-60
2022/01/16 02:01:26;;;;;;;39.10;24.17;;;;;;;3.92;61.26;102220.88;5032090;28;20205;-61
2022/01/16 02:03:53;;;;;;;42.65;24.75;;;;;;;3.93;61.29;102221.72;5031997;28;20059;-60
2022/01/16 02:06:32;;;;;;;38.53;24.48;;;;;;;3.90;61.20;102220.00;5033132;28;20056;-61
2022/01/16 02:09:03;;;;;;;39.80;25.92;;;;;;;3.90;60.94;102219.16;5032771;28;20045;-60
2022/01/16 02:11:32;;;;;;;42.92;25.50;;;;;;;3.92;61.00;102207.88;5032870;28;20501;-60
2022/01/16 02:30:58;;;;;;;38.97;25.38;;;;;;;3.80;61.46;102218.31;5032605;28;20053;-60
2022/01/16 02:35:53;;;;;;;36.90;23.45;;;;;;;3.81;61.12;102208.78;5032673;28;20554;-59
2022/01/16 02:38:21;;;;;;;36.13;24.80;;;;;;;3.83;61.19;102209.66;5031471;28;20069;-60
2022/01/16 02:40:57;;;;;;;38.80;25.23;;;;;;;3.83;61.00;102196.66;5032323;28;20111;-60
2022/01/16 02:43:30;;;;;;;;;;;;;;;3.78;61.31;102183.69;5032905;28;20049;-60
2022/01/16 02:48:48;;;;;;;37.67;23.80;;;;;;;3.81;61.26;102167.25;5032244;28;20048;-60
2022/01/16 02:51:17;;;;;;;37.03;24.75;;;;;;;3.81;61.40;102181.09;5032309;28;20096;-60
2022/01/16 02:53:46;;;;;;;33.78;22.95;;;;;;;3.83;61.26;102175.91;5031159;28;20140;-59
2022/01/16 02:56:14;;;;;;;37.45;24.08;;;;;;;3.80;61.50;102166.38;5032210;28;20046;-59
2022/01/16 02:58:42;;;;;;;37.58;23.45;;;;;;;3.80;61.43;102161.19;5032131;28;20045;-60
2022/01/16 03:01:09;;;;;;;34.90;22.33;;;;;;;3.81;61.58;102152.53;5032342;28;20045;-60
2022/01/16 03:03:36;;;;;;;35.13;21.90;;;;;;;3.82;61.48;102153.38;5032195;28;20049;-60
2022/01/16 03:06:03;;;;;;;31.58;20.70;;;;;;;3.80;61.37;102153.41;5032158;28;20054;-60
2022/01/16 03:08:30;;;;;;;35.97;22.42;;;;;;;3.84;61.50;102151.66;5030877;28;20441;-60
2022/01/16 03:13:30;;;;;;;33.42;19.85;;;;;;;3.89;61.64;102147.31;5031905;28;20053;-60
2022/01/16 03:15:58;;;;;;;32.05;19.92;;;;;;;3.83;61.79;102139.53;5032103;28;20057;-59
2022/01/16 03:23:42;;;;;;;29.57;18.73;;;;;;;3.84;61.88;102147.31;5031982;28;20136;-60
2022/01/16 03:26:08;;;;;;;32.03;19.67;;;;;;;3.80;61.78;102147.38;5030814;28;20050;-61
2022/01/16 03:28:35;;;;;;;27.52;19.17;;;;;;;3.76;62.02;102152.56;5031815;28;20564;-60
2022/01/16 03:31:02;;;;;;;33.53;21.05;;;;;;;3.72;62.16;102145.66;5031633;28;20545;-60
2022/01/16 03:33:29;;;;;;;31.17;20.88;;;;;;;3.68;61.95;102149.16;5031827;28;20045;-63
2022/01/16 03:35:56;;;;;;;30.67;19.75;;;;;;;3.67;62.11;102141.34;5031731;28;20068;-60
2022/01/16 03:38:23;;;;;;;29.92;19.15;;;;;;;3.67;62.06;102141.34;5031731;28;20052;-60
2022/01/16 03:40:49;;;;;;;27.63;18.27;;;;;;;3.65;62.15;102148.31;5030969;28;20037;-59
2022/01/16 03:43:16;;;;;;;29.25;19.45;;;;;;;3.66;62.03;102147.44;5031864;28;20041;-59
2022/01/16 03:45:45;;;;;;;28.27;19.00;;;;;;;3.65;62.08;102148.31;5031647;28;20508;-60
2022/01/16 03:48:14;;;;;;;27.50;18.08;;;;;;;3.58;62.29;102140.53;5031436;28;20049;-69
2022/01/16 03:50:40;;;;;;;29.52;19.38;;;;;;;3.59;62.22;102143.97;5031647;28;20041;-59
2022/01/16 03:53:07;;;;;;;32.20;19.52;;;;;;;3.61;62.16;102152.63;5031438;28;20050;-60
2022/01/16 03:55:34;;;;;;;27.98;18.80;;;;;;;3.58;62.20;102157.81;5031592;28;20045;-60
2022/01/16 03:58:02;;;;;;;28.20;18.67;;;;;;;3.54;62.27;102144.03;5030760;28;20053;-60
2022/01/16 04:00:29;;;;;;;24.02;17.10;;;;;;;3.51;62.33;102146.63;5031448;28;20061;-60
2022/01/16 04:02:56;;;;;;;31.08;17.83;;;;;;;3.49;62.33;102144.91;5028168;28;20128;-59
2022/01/16 04:05:23;;;;;;;26.60;17.75;;;;;;;3.47;62.23;102149.25;5026489;28;20045;-60
2022/01/16 04:07:50;;;;;;;27.23;17.25;;;;;;;3.46;62.16;102140.59;5027864;28;20042;-60
2022/01/16 04:10:17;;;;;;;27.65;17.48;;;;;;;3.42;61.89;102147.53;5027970;28;20061;-60
2022/01/16 04:12:45;;;;;;;30.70;18.48;;;;;;;3.38;62.26;102143.22;5027410;28;20754;-60
2022/01/16 04:17:40;;;;;;;26.98;18.00;;;;;;;3.37;62.13;102130.25;5014374;28;20104;-59
2022/01/16 04:20:08;;;;;;;24.98;16.85;;;;;;;3.36;61.93;102129.38;5028107;28;20050;-60
2022/01/16 04:22:35;;;;;;;29.70;18.42;;;;;;;3.38;61.77;102132.00;5027658;28;20049;-60
2022/01/16 04:25:01;;;;;;;29.63;18.95;;;;;;;3.35;61.96;102122.50;5028901;28;20046;-60
2022/01/16 04:27:28;;;;;;;31.73;18.35;;;;;;;3.36;61.92;102120.75;5031550;28;20049;-62
2022/01/16 04:29:55;;;;;;;23.88;17.45;;;;;;;3.35;61.76;102122.50;5030448;28;20495;-62
2022/01/16 04:32:22;;;;;;;26.80;17.80;;;;;;;3.32;61.98;102106.06;5031158;28;20060;-62
2022/01/16 04:34:48;;;;;;;30.20;17.38;;;;;;;3.29;61.87;102114.72;5031600;28;20045;-62
2022/01/16 04:37:15;;;;;;;24.92;17.05;;;;;;;3.30;61.91;102107.78;5031311;28;20050;-62
2022/01/16 04:39:49;;;;;;;25.73;17.35;;;;;;;3.29;61.77;102099.16;5031305;28;20498;-61
2022/01/16 04:45:02;;;;;;;25.37;17.23;;;;;;;3.28;61.84;102110.41;5031377;28;20553;-64
2022/01/16 04:47:30;;;;;;;26.90;16.70;;;;;;;3.26;61.76;102105.22;5031104;28;20045;-62
2022/01/16 04:49:56;;;;;;;24.95;16.92;;;;;;;3.30;61.88;102098.28;5031546;28;20075;-62
2022/01/16 04:52:23;;;;;;;23.27;15.95;;;;;;;3.32;61.98;102096.53;5031112;28;20107;-62
2022/01/16 04:54:50;;;;;;;25.30;16.52;;;;;;;3.29;61.83;102090.50;5030958;28;20041;-62
2022/01/16 04:57:17;;;;;;;24.33;16.88;;;;;;;3.24;61.91;102098.31;5031368;28;20045;-62
2022/01/16 04:59:44;;;;;;;23.73;15.82;;;;;;;3.21;61.86;102099.19;5031076;28;20049;-62
2022/01/16 05:02:11;;;;;;;27.05;16.80;;;;;;;3.18;61.98;102101.78;5029992;28;20485;-62
2022/01/16 05:04:38;;;;;;;24.27;17.48;;;;;;;3.17;61.85;102094.00;5031292;28;20045;-69
2022/01/16 05:07:05;;;;;;;23.17;16.27;;;;;;;3.15;61.63;102096.63;5030847;28;20504;-62
2022/01/16 05:09:32;;;;;;;26.52;17.48;;;;;;;3.11;61.76;102102.66;5030713;28;20109;-62
2022/01/16 05:12:01;;;;;;;27.83;15.75;;;;;;;3.08;61.64;102095.75;5030899;28;20057;-62
2022/01/16 05:17:14;;;;;;;23.63;15.98;;;;;;;3.11;61.63;102100.06;5029434;28;20069;-62
2022/01/16 05:19:41;;;;;;;25.08;16.45;;;;;;;3.12;61.39;102099.22;5030583;28;20048;-62
2022/01/16 05:22:07;;;;;;;22.75;15.25;;;;;;;3.10;61.49;102104.41;5030451;28;20171;-61
2022/01/16 05:24:35;;;;;;;23.35;14.95;;;;;;;3.10;61.61;102103.56;5030652;28;20042;-60
2022/01/16 05:27:02;;;;;;;23.92;15.68;;;;;;;3.10;61.64;102113.94;5030717;28;20506;-60
2022/01/16 05:29:28;;;;;;;26.30;15.65;;;;;;;3.07;61.89;102106.13;5030723;28;20037;-73
2022/01/16 05:31:55;;;;;;;25.77;16.08;;;;;;;3.07;61.71;102111.34;5030574;28;20061;-59
2022/01/16 05:34:25;;;;;;;21.50;14.70;;;;;;;3.04;61.81;102114.78;5029632;28;20103;-60
2022/01/16 05:36:53;;;;;;;24.38;14.15;;;;;;;3.03;61.84;102115.66;5030720;28;20128;-60
2022/01/16 05:39:19;;;;;;;22.70;15.73;;;;;;;3.04;61.71;102107.00;5030179;28;20080;-60
2022/01/16 05:41:46;;;;;;;24.25;15.68;;;;;;;3.00;61.79;102113.09;5030428;28;20041;-67
2022/01/16 05:44:14;;;;;;;22.70;15.52;;;;;;;2.99;61.73;102113.09;5030265;28;20053;-60
2022/01/16 05:46:40;;;;;;;21.50;15.30;;;;;;;3.00;61.57;102113.09;5030406;28;20124;-60
2022/01/16 05:49:07;;;;;;;24.90;15.77;;;;;;;2.98;61.67;102107.03;5030220;28;20045;-60
2022/01/16 05:51:34;;;;;;;23.50;15.23;;;;;;;2.93;61.84;102104.47;5029110;28;20049;-60
2022/01/16 05:54:00;;;;;;;22.83;15.18;;;;;;;2.91;61.69;102108.78;5030684;28;20079;-65
2022/01/16 05:56:27;;;;;;;24.17;14.82;;;;;;;2.89;61.82;102105.31;5030560;28;20042;-60
2022/01/16 05:58:54;;;;;;;25.42;14.20;;;;;;;2.88;61.64;102108.81;5030102;28;20041;-60
2022/01/16 06:01:20;;;;;;;23.73;14.90;;;;;;;2.83;61.68;102109.66;5029864;28;20572;-62
2022/01/16 06:03:47;;;;;;;22.77;14.10;;;;;;;2.79;61.65;102119.19;5029770;28;20057;-60
2022/01/16 06:06:14;;;;;;;24.70;15.00;;;;;;;2.76;61.57;102117.44;5029989;28;20084;-62
2022/01/16 06:08:41;;;;;;;24.60;15.10;;;;;;;2.76;61.48;102126.97;5028869;28;20042;-60
2022/01/16 06:11:17;;;;;;;21.45;15.00;;;;;;;2.76;61.27;102120.03;5029611;28;20080;-59
2022/01/16 06:13:46;;;;;;;23.08;14.52;;;;;;;2.73;61.50;102132.16;5029316;28;20072;-59
2022/01/16 06:16:13;;;;;;;22.67;14.88;;;;;;;2.69;61.50;102138.19;5029648;28;20110;-59
2022/01/16 06:18:39;;;;;;;25.95;16.38;;;;;;;2.77;61.24;102139.06;5029829;28;20045;-59
2022/01/16 06:21:06;;;;;;;20.52;14.75;;;;;;;2.75;61.43;102144.22;5029616;28;20091;-62
2022/01/16 06:23:32;;;;;;;21.13;13.70;;;;;;;2.74;61.34;102145.13;5029453;28;20126;-66
2022/01/16 06:25:59;;;;;;;21.42;14.35;;;;;;;2.71;61.16;102144.25;5028711;28;20041;-61
2022/01/16 06:28:28;;;;;;;18.25;12.57;;;;;;;2.71;61.38;102142.53;5029615;28;20049;-61
2022/01/16 06:30:55;;;;;;;19.70;12.63;;;;;;;2.74;61.50;102141.66;5029532;28;20046;-62
2022/01/16 06:33:21;;;;;;;21.35;14.32;;;;;;;2.73;61.63;102138.22;5029339;28;20148;-59
2022/01/16 06:35:48;;;;;;;26.35;15.20;;;;;;;2.74;61.70;102141.66;5029322;28;20049;-59
2022/01/16 06:38:15;;;;;;;23.23;15.05;;;;;;;2.75;61.75;102146.81;5029508;28;20406;-59
2022/01/16 06:40:43;;;;;;;22.23;15.23;;;;;;;2.74;61.87;102146.84;5029291;28;20544;-65
2022/01/16 06:43:09;;;;;;;24.38;15.82;;;;;;;2.71;62.02;102150.28;5015548;28;20049;-60
2022/01/16 06:45:36;;;;;;;24.20;15.27;;;;;;;2.75;62.01;102156.34;5029453;28;20080;-59
2022/01/16 06:48:03;;;;;;;28.33;16.30;;;;;;;2.70;61.81;102166.72;5028632;28;20299;-59
2022/01/16 06:50:30;;;;;;;25.02;16.02;;;;;;;2.69;62.08;102171.91;5029693;28;20045;-59
2022/01/16 06:52:56;;;;;;;22.45;14.85;;;;;;;2.67;62.00;102174.50;5029252;28;20115;-59
2022/01/16 06:55:23;;;;;;;20.75;14.65;;;;;;;2.71;62.21;102180.56;5029140;28;20049;-59
2022/01/16 06:57:50;;;;;;;22.75;15.40;;;;;;;2.68;61.89;102181.41;5029219;28;20053;-60
2022/01/16 07:00:16;;;;;;;21.52;14.75;;;;;;;2.68;61.92;102172.75;5028085;28;20107;-59
2022/01/16 07:02:43;;;;;;;24.70;15.60;;;;;;;2.69;61.92;102170.19;5029168;28;20513;-59
2022/01/16 07:05:10;;;;;;;25.48;15.82;;;;;;;2.69;61.67;102167.59;5028902;28;20160;-59
2022/01/16 07:07:37;;;;;;;22.55;15.43;;;;;;;2.68;61.86;102167.56;5029139;28;20096;-59
2022/01/16 07:10:04;;;;;;;24.95;15.60;;;;;;;2.71;61.85;102170.19;5028383;28;20064;-60
2022/01/16 07:12:31;;;;;;;22.15;14.32;;;;;;;2.70;61.66;102179.66;5028935;28;20037;-59
2022/01/16 07:14:58;;;;;;;21.30;14.65;;;;;;;2.72;61.73;102185.72;5029252;28;20114;-62
2022/01/16 07:17:24;;;;;;;23.17;14.25;;;;;;;2.73;61.80;102190.06;5027846;28;20889;-60
2022/01/16 07:19:51;;;;;;;22.58;15.07;;;;;;;2.77;61.51;102196.94;5029123;28;20053;-59
2022/01/16 07:22:21;;;;;;;25.13;16.17;;;;;;;2.85;61.41;102183.13;5028932;28;20631;-60
2022/01/16 07:24:50;;;;;;;26.02;15.98;;;;;;;2.95;61.23;102187.44;5028662;28;20053;-59
2022/01/16 07:27:18;;;;;;;28.00;16.10;;;;;;;3.07;61.00;102195.19;5028528;28;20490;-60
2022/01/16 07:29:45;;;;;;;23.80;13.98;;;;;;;3.17;60.87;102190.84;5029033;28;20575;-60
2022/01/16 07:32:12;;;;;;;24.75;15.48;;;;;;;3.30;60.60;102177.84;5028097;28;20096;-59
2022/01/16 07:34:39;;;;;;;22.42;15.10;;;;;;;3.40;60.33;102175.22;5028616;28;20038;-59
2022/01/16 07:37:05;;;;;;;22.48;14.25;;;;;;;3.48;60.00;102179.50;5028492;28;20041;-60
2022/01/16 07:39:32;;;;;;;22.80;14.27;;;;;;;3.53;59.69;102181.22;5028543;28;20046;-60
2022/01/16 07:41:58;;;;;;;26.90;17.67;;;;;;;3.63;59.51;102181.19;5028959;28;20053;-60
2022/01/16 07:44:25;;;;;;;30.25;17.38;;;;;;;3.63;59.59;102184.66;5028506;28;20517;-59
2022/01/16 07:46:51;;;;;;;29.35;19.50;;;;;;;3.70;59.53;102188.09;5028629;28;20045;-70
2022/01/16 07:49:18;;;;;;;32.75;20.75;;;;;;;3.76;59.45;102188.06;5027626;28;20081;-59
2022/01/16 07:51:45;;;;;;;39.47;23.73;;;;;;;3.85;59.47;102187.16;5028523;28;20051;-60
2022/01/16 07:54:11;;;;;;;47.15;28.02;;;;;;;3.93;59.38;102182.75;5028613;28;20049;-60
2022/01/16 07:56:38;;;;;;;43.95;26.15;;;;;;;3.95;59.68;102187.94;5028317;28;20099;-60
2022/01/16 07:59:05;;;;;;;45.45;25.85;;;;;;;3.95;59.72;102173.25;5028583;28;20045;-60
2022/01/16 08:01:31;;;;;;;39.85;24.27;;;;;;;4.01;60.15;102161.94;5031968;28;20041;-60
2022/01/16 08:03:58;;;;;;;43.13;26.50;;;;;;;4.06;60.12;102163.66;5032173;28;20053;-59
2022/01/16 08:06:30;;;;;;;48.33;29.05;;;;;;;4.13;60.07;102164.47;5031411;28;20076;-60
2022/01/16 08:08:57;;;;;;;49.00;29.70;;;;;;;4.17;60.06;102165.31;5032066;28;20118;-60
2022/01/16 08:11:24;;;;;;;52.13;32.80;;;;;;;4.28;60.27;102158.31;5032233;28;20053;-60
2022/01/16 08:13:50;;;;;;;54.55;33.22;;;;;;;4.39;60.18;102163.41;5032885;28;20056;-61
2022/01/16 08:16:17;;;;;;;44.38;30.38;;;;;;;4.56;60.07;102165.88;5032311;28;20060;-60
2022/01/16 08:18:44;;;;;;;46.58;28.70;;;;;;;4.70;60.10;102165.75;5032013;28;20421;-60
2022/01/16 08:21:10;;;;;;;43.20;27.67;;;;;;;4.87;60.01;102157.78;5031821;28;20049;-60
2022/01/16 08:23:37;;;;;;;41.22;27.42;;;;;;;5.07;59.82;102158.44;5030829;28;20049;-60
2022/01/16 08:26:04;;;;;;;45.78;28.65;;;;;;;5.30;59.18;102149.50;5031709;28;20046;-63
2022/01/16 08:28:31;;;;;;;42.13;28.73;;;;;;;5.63;58.75;102155.19;5031914;28;20077;-62
2022/01/16 08:30:57;;;;;;;48.85;29.90;;;;;;;6.01;58.13;102151.22;5031727;28;20045;-62
2022/01/16 08:33:24;;;;;;;47.20;29.23;;;;;;;6.40;57.39;102147.13;5031819;28;20560;-62
2022/01/16 08:35:51;;;;;;;59.33;38.60;;;;;;;6.66;56.83;102146.69;5031717;28;20053;-64
2022/01/16 08:38:18;;;;;;;53.85;34.90;;;;;;;6.79;56.81;102142.13;5030822;28;20046;-75
2022/01/16 08:40:44;;;;;;;52.38;32.03;;;;;;;6.98;56.42;102142.66;5031328;28;20045;-64
2022/01/16 08:43:11;;;;;;;46.95;30.95;;;;;;;7.14;56.29;102145.81;5024989;28;20054;-64
2022/01/16 08:45:40;;;;;;;67.22;40.42;;;;;;;7.30;55.99;102157.69;5023998;28;20485;-65
2022/01/16 08:48:07;;;;;;;57.90;35.85;;;;;;;7.50;56.03;102153.78;5031249;28;20072;-64
2022/01/16 08:50:37;;;;;;;51.25;32.75;;;;;;;7.63;55.79;102150.03;5030872;28;20060;-63
2022/01/16 08:53:07;;;;;;;48.35;33.08;;;;;;;7.72;55.84;102156.81;5019239;28;20128;-63
2022/01/16 08:55:35;;;;;;;48.30;31.95;;;;;;;7.87;55.44;102152.13;5026098;28;20092;-66
2022/01/16 08:58:02;;;;;;;49.78;31.95;;;;;;;8.02;55.29;102151.78;5016867;28;20046;-63
2022/01/16 09:00:30;;;;;;;49.97;32.85;;;;;;;8.13;55.27;102156.78;5016377;28;20124;-64
2022/01/16 09:02:58;;;;;;;59.80;37.95;;;;;;;8.26;55.06;102162.56;5031186;28;20125;-65
2022/01/16 09:05:26;;;;;;;51.83;33.95;;;;;;;8.37;54.99;102157.06;5031150;28;20052;-64
2022/01/16 09:07:53;;;;;;;63.88;39.97;;;;;;;8.45;54.88;102157.75;5030885;28;20449;-63
2022/01/16 09:10:20;;;;;;;55.97;37.50;;;;;;;8.63;54.51;102161.69;5030312;28;20111;-66
2022/01/16 09:12:47;;;;;;;52.22;36.72;;;;;;;8.75;54.42;102165.75;5029980;28;20076;-62
2022/01/16 09:15:14;;;;;;;52.40;36.97;;;;;;;8.90;54.05;102160.13;5030706;28;20133;-63
2022/01/16 09:17:42;;;;;;;55.25;37.20;;;;;;;8.96;54.05;102161.69;5031028;28;20045;-63
2022/01/16 09:20:12;;;;;;;56.33;37.17;;;;;;;9.09;53.77;102165.72;5030996;28;20239;-63
2022/01/16 09:22:40;;;;;;;52.75;34.08;;;;;;;9.30;53.47;102161.63;5030528;28;20441;-64
2022/01/16 09:25:08;;;;;;;53.90;36.70;;;;;;;9.39;53.35;102160.50;5030867;28;20068;-60
2022/01/16 09:27:34;;;;;;;59.13;36.88;;;;;;;9.49;53.15;102171.56;5030608;28;20041;-62
2022/01/16 09:30:02;;;;;;;71.13;47.72;;;;;;;9.60;52.96;102166.88;5029537;28;20049;-62
2022/01/16 09:32:29;;;;;;;51.83;36.22;;;;;;;9.75;52.83;102155.09;5030365;28;20097;-62
2022/01/16 09:34:56;;;;;;;64.68;42.92;;;;;;;9.83;52.69;102160.09;5030766;28;20103;-62
2022/01/16 09:37:23;;;;;;;61.13;40.88;;;;;;;10.05;52.25;102162.03;5027550;28;20124;-63
2022/01/16 09:40:10;;;;;;;58.97;40.00;;;;;;;10.14;52.18;102153.88;5026587;28;20053;-78
2022/01/16 09:42:38;;;;;;;56.65;37.30;;;;;;;10.34;51.97;102155.84;5026123;28;20049;-63
2022/01/16 09:45:12;;;;;;;63.47;44.58;;;;;;;10.49;51.73;102153.66;5029506;28;20093;-62
2022/01/16 09:47:43;;;;;;;53.92;36.60;;;;;;;10.62;51.25;102147.94;5029674;28;20060;-63
2022/01/16 09:50:38;;;;;;;47.38;30.67;;;;;;;10.81;50.98;102149.09;5030027;28;20056;-62
2022/01/16 09:53:05;;;;;;;55.33;35.40;;;;;;;10.95;50.58;102142.41;5030018;28;20053;-64
2022/01/16 09:55:32;;;;;;;78.82;53.22;;;;;;;11.10;50.21;102127.88;5030027;28;20425;-63
2022/01/16 09:58:00;;;;;;;48.78;34.30;;;;;;;11.23;49.89;102130.06;5030222;28;20050;-64
2022/01/16 10:00:27;;;;;;;40.45;28.92;;;;;;;11.35;49.71;102126.09;5029251;28;20132;-64
2022/01/16 10:02:54;;;;;;;45.03;31.23;;;;;;;11.51;49.35;102127.25;5030096;28;20049;-64
2022/01/16 10:05:29;;;;;;;68.22;45.58;;;;;;;11.62;48.96;102125.97;5029912;28;20050;-64
2022/01/16 10:07:58;;;;;;;50.42;36.90;;;;;;;11.70;48.90;102130.00;5029790;28;20045;-64
2022/01/16 10:10:28;;;;;;;42.97;30.75;;;;;;;11.76;48.73;102123.66;5026179;28;20057;-63
2022/01/16 10:13:04;;;;;;;41.30;28.63;;;;;;;11.87;48.32;102126.72;5020499;28;20049;-64
2022/01/16 10:15:32;;;;;;;80.78;53.10;;;;;;;11.99;48.20;102119.31;5014019;28;20045;-63
2022/01/16 10:18:01;;;;;;;56.83;40.35;;;;;;;12.08;48.00;102119.75;5015156;28;20503;-63
2022/01/16 10:20:41;;;;;;;44.35;30.23;;;;;;;12.16;47.76;102114.19;5016632;28;20462;-64
2022/01/16 10:23:17;;;;;;;62.75;45.67;;;;;;;12.27;47.49;102116.38;5009101;28;20414;-64
2022/01/16 10:26:01;;;;;;;60.75;41.13;;;;;;;12.32;47.43;102117.03;5008958;28;20057;-65
2022/01/16 10:28:39;;;;;;;50.15;36.33;;;;;;;12.42;47.23;102114.88;5021667;28;20049;-64
2022/01/16 10:31:05;;;;;;;47.33;31.60;;;;;;;12.52;47.00;102113.56;5013288;28;20038;-63
2022/01/16 10:33:33;;;;;;;39.00;28.40;;;;;;;12.65;46.97;102111.25;5011771;28;20486;-63
2022/01/16 10:36:09;;;;;;;38.80;26.35;;;;;;;12.74;46.84;102110.00;5022263;28;20037;-65
2022/01/16 10:38:36;;;;;;;38.10;27.17;;;;;;;12.83;46.48;102114.84;5014054;28;20044;-62
2022/01/16 10:41:03;;;;;;;34.80;24.38;;;;;;;12.94;46.31;102108.25;5014753;28;20103;-65
2022/01/16 10:43:39;;;;;;;33.97;24.92;;;;;;;13.00;46.14;102097.44;5012209;28;20057;-63
2022/01/16 10:46:08;;;;;;;34.30;22.35;;;;;;;13.00;46.28;102093.03;5011939;28;20052;-63
2022/01/16 10:49:14;;;;;;;34.75;25.20;;;;;;;13.07;46.00;102088.34;5024138;28;20085;-62
2022/01/16 10:51:41;;;;;;;36.15;24.40;;;;;;;13.19;45.60;102081.66;5026377;28;20100;-62
2022/01/16 10:54:31;;;;;;;29.52;22.00;;;;;;;13.30;45.36;102068.81;5021858;28;20055;-61
2022/01/16 10:56:58;;;;;;;54.00;39.47;;;;;;;13.34;45.43;102069.53;5026112;28;20042;-63
2022/01/16 10:59:24;;;;;;;42.45;30.52;;;;;;;13.36;45.20;102065.91;5028627;28;20049;-63
2022/01/16 11:02:10;;;;;;;33.17;25.00;;;;;;;13.37;45.52;102057.09;5028595;28;20049;-62
2022/01/16 11:04:36;;;;;;;41.43;27.73;;;;;;;13.36;45.40;102050.09;5028684;28;20049;-63
2022/01/16 11:07:04;;;;;;;45.40;29.30;;;;;;;13.37;45.59;102043.91;5028309;28;20291;-63
2022/01/16 11:09:32;;;;;;;112.03;66.82;;;;;;;13.32;45.70;102042.38;5028871;28;20092;-63
2022/01/16 11:11:59;;;;;;;42.70;27.17;;;;;;;13.26;45.97;102029.53;5027829;28;20092;-62
2022/01/16 11:14:28;;;;;;;43.92;29.58;;;;;;;13.23;46.16;102031.34;5028967;28;20077;-64
2022/01/16 11:16:56;;;;;;;38.78;27.38;;;;;;;13.16;46.65;102029.09;5028820;28;20123;-63
2022/01/16 11:19:24;;;;;;;46.03;30.13;;;;;;;12.98;47.17;102028.16;5028666;28;20037;-63
2022/01/16 11:21:56;;;;;;;42.45;30.27;;;;;;;12.95;47.44;102020.38;5028648;28;20521;-63
2022/01/16 11:26:53;;;;;;;40.05;26.67;;;;;;;12.73;48.23;102018.72;5028653;28;20053;-63
2022/01/16 11:29:20;;;;;;;59.22;38.60;;;;;;;12.62;48.39;102021.88;5028447;28;20133;-62
2022/01/16 11:31:49;;;;;;;39.90;29.75;;;;;;;12.48;48.77;102013.72;5028585;28;20050;-60
2022/01/16 11:34:16;;;;;;;38.65;27.27;;;;;;;12.40;49.09;102016.69;5029339;28;20081;-60
2022/01/16 11:36:44;;;;;;;50.83;33.70;;;;;;;12.36;49.45;102013.31;5032658;28;20046;-61
2022/01/16 11:39:11;;;;;;;43.83;30.58;;;;;;;12.40;49.49;102014.06;5032296;28;20143;-62
2022/01/16 11:41:55;;;;;;;57.95;38.83;;;;;;;12.35;49.75;102011.59;5032176;28;20045;-61
2022/01/16 11:44:30;;;;;;;51.38;32.10;;;;;;;12.37;49.79;102007.16;5032371;28;20053;-61
2022/01/16 11:46:59;;;;;;;48.35;32.22;;;;;;;12.40;49.78;102009.66;5031862;28;20124;-59
2022/01/16 11:49:36;;;;;;;41.83;28.10;;;;;;;12.39;50.02;101999.19;5032239;28;20494;-60
2022/01/16 11:52:11;;;;;;;40.08;25.60;;;;;;;12.44;49.90;102004.25;5031930;28;20049;-59
2022/01/16 11:54:45;;;;;;;41.22;26.00;;;;;;;12.48;49.87;101990.00;5030080;28;20449;-59
2022/01/16 11:57:18;;;;;;;55.03;34.03;;;;;;;12.52;50.05;101986.31;5031791;28;20095;-61
2022/01/16 11:59:47;;;;;;;37.60;23.92;;;;;;;12.49;50.38;101989.09;5024967;28;20049;-61
2022/01/16 12:02:15;;;;;;;36.00;24.83;;;;;;;12.56;49.96;101982.66;5031974;28;20051;-61
2022/01/16 12:04:44;;;;;;;32.88;23.73;;;;;;;12.61;50.17;101975.38;5031492;28;20049;-59
2022/01/16 12:07:15;;;;;;;35.47;22.98;;;;;;;12.71;49.80;101970.56;5031134;28;20045;-61
2022/01/16 12:12:11;;;;;;;33.10;23.25;;;;;;;12.77;49.81;101974.69;5031027;28;20156;-62
2022/01/16 12:14:49;;;;;;;86.75;52.03;;;;;;;12.84;49.63;101982.22;5030916;28;20038;-63